| time (UTC) | temp C | wind direction | speed KPH | gust KPH | rain 1hr cm | rain 24hr cm | rain mn cm | humidity % | barometer mb |
| 20260506163039 | 12 | 182 | 8.0 | 17.7 | 0.00 | 0.00 | 0.00 | 80 | 1018.4 |
| 20260506161536 | 12 | 142 | 6.4 | 16.1 | 0.00 | 0.00 | 0.00 | 81 | 1018.5 |
| 20260506160035 | 12 | 142 | 6.4 | 16.1 | 0.00 | 0.00 | 0.00 | 81 | 1018.5 |
| 20260506154534 | 12 | 118 | 6.4 | 17.7 | 0.00 | 0.00 | 0.00 | 82 | 1018.6 |
| 20260506153033 | 12 | 115 | 6.4 | 17.7 | 0.00 | 0.00 | 0.00 | 82 | 1018.6 |
| 20260506151531 | 12 | 167 | 6.4 | 19.3 | 0.00 | 0.00 | 0.00 | 83 | 1018.8 |
| 20260506150030 | 11 | 194 | 8.0 | 17.7 | 0.00 | 0.00 | 0.00 | 83 | 1018.6 |
| 20260506144534 | 11 | 284 | 6.4 | 14.5 | 0.00 | 0.00 | 0.00 | 84 | 1018.5 |
| 20260506143029 | 11 | 174 | 8.0 | 19.3 | 0.00 | 0.00 | 0.00 | 85 | 1018.2 |
| 20260506141530 | 11 | 153 | 6.4 | 12.9 | 0.00 | 0.00 | 0.00 | 85 | 1018.0 |
| 20260506140025 | 11 | 155 | 4.8 | 9.7 | 0.00 | 0.00 | 0.00 | 85 | 1018.0 |
| 20260506134523 | 11 | 167 | 3.2 | 8.0 | 0.00 | 0.00 | 0.00 | 86 | 1017.8 |
| 20260506133021 | 11 | 210 | 3.2 | 8.0 | 0.00 | 0.00 | 0.00 | 87 | 1017.7 |
| 20260506131529 | 10 | 209 | 1.6 | 4.8 | 0.00 | 0.00 | 0.00 | 88 | 1017.7 |
| 20260506130020 | 10 | 195 | 4.8 | 11.3 | 0.00 | 0.00 | 0.00 | 88 | 1017.4 |
| 20260506124515 | 10 | 183 | 4.8 | 11.3 | 0.00 | 0.00 | 0.00 | 87 | 1017.3 |
| 20260506123013 | 10 | 130 | 4.8 | 8.0 | 0.00 | 0.00 | 0.00 | 87 | 1017.2 |
| 20260506121512 | 11 | 159 | 3.2 | 9.7 | 0.00 | 0.00 | 0.00 | 87 | 1017.2 |
| 20260506120014 | 11 | 169 | 0.0 | 4.8 | 0.00 | 0.00 | 0.00 | 86 | 1017.1 |
| 20260506114508 | 11 | 170 | 4.8 | 8.0 | 0.00 | 0.00 | 0.00 | 86 | 1017.0 |
| 20260506113006 | 11 | 152 | 6.4 | 11.3 | 0.00 | 0.00 | 0.00 | 86 | 1016.7 |
| 20260506111502 | 11 | 150 | 4.8 | 9.7 | 0.00 | 0.00 | 0.00 | 86 | 1016.5 |
| 20260506110103 | 11 | 169 | 1.6 | 8.0 | 0.00 | 0.00 | 0.00 | 86 | 1016.4 |
| 20260506104559 | 11 | 211 | 4.8 | 9.7 | 0.00 | 0.00 | 0.00 | 85 | 1016.2 |
| 20260506103059 | 11 | 160 | 6.4 | 12.9 | 0.00 | 0.00 | 0.00 | 85 | 1015.9 |
| 20260506101559 | 11 | 184 | 6.4 | 12.9 | 0.00 | 0.00 | 0.00 | 85 | 1015.8 |
| 20260506100104 | 11 | 159 | 4.8 | 9.7 | 0.00 | 0.00 | 0.00 | 85 | 1015.7 |
| 20260506094549 | 11 | 212 | 4.8 | 11.3 | 0.00 | 0.00 | 0.00 | 84 | 1015.4 |
| 20260506093047 | 11 | 161 | 4.8 | 11.3 | 0.00 | 0.00 | 0.00 | 84 | 1015.3 |
| 20260506091540 | 11 | 144 | 4.8 | 9.7 | 0.00 | 0.00 | 0.00 | 84 | 1015.3 |
| 20260506090038 | 11 | 165 | 8.0 | 16.1 | 0.00 | 0.00 | 0.00 | 83 | 1015.3 |
| 20260506084549 | 12 | 175 | 4.8 | 11.3 | 0.00 | 0.00 | 0.00 | 82 | 1015.2 |
| 20260506083034 | 12 | 127 | 4.8 | 8.0 | 0.00 | 0.00 | 0.00 | 83 | 1015.2 |
| 20260506081539 | 12 | 149 | 4.8 | 8.0 | 0.00 | 0.00 | 0.00 | 83 | 1015.2 |
| 20260506073036 | 12 | 154 | 4.8 | 8.0 | 0.00 | 0.00 | 0.00 | 83 | 1014.8 |
| 20260506071520 | 12 | 142 | 4.8 | 11.3 | 0.00 | 0.00 | 0.00 | 83 | 1014.8 |
| 20260506061504 | 13 | 148 | 4.8 | 14.5 | 0.00 | 0.00 | 0.00 | 80 | 1014.2 |
| 20260506044625 | 15 | 180 | 6.4 | 12.9 | 0.00 | 0.00 | 0.00 | 71 | 1013.8 |
| 20260506043034 | 15 | 160 | 4.8 | 14.5 | 0.00 | 0.00 | 0.00 | 74 | 1013.6 |
| 20260506041529 | 15 | 107 | 3.2 | 11.3 | 0.00 | 0.00 | 0.00 | 72 | 1013.4 |
| 20260506040028 | 15 | 163 | 4.8 | 16.1 | 0.00 | 0.00 | 0.00 | 73 | 1013.3 |
| 20260506034543 | 15 | 178 | 4.8 | 12.9 | 0.00 | 0.00 | 0.00 | 73 | 1013.2 |
| 20260506033016 | 16 | 144 | 6.4 | 19.3 | 0.00 | 0.00 | 0.00 | 70 | 1013.0 |
| 20260506031512 | 16 | 154 | 6.4 | 27.4 | 0.00 | 0.00 | 0.00 | 69 | 1012.9 |
| 20260506030008 | 17 | 202 | 8.0 | 16.1 | 0.00 | 0.00 | 0.00 | 68 | 1012.8 |
| 20260506024502 | 17 | 178 | 9.7 | 22.5 | 0.00 | 0.00 | 0.00 | 67 | 1012.9 |
| 20260506023111 | 17 | 171 | 11.3 | 17.7 | 0.00 | 0.00 | 0.00 | 67 | 1012.8 |
| 20260506021554 | 18 | 157 | 8.0 | 19.3 | 0.00 | 0.00 | 0.00 | 68 | 1013.0 |
| 20260506020049 | 18 | 172 | 9.7 | 22.5 | 0.00 | 0.00 | 0.00 | 66 | 1012.9 |
| 20260506014545 | 18 | 159 | 8.0 | 16.1 | 0.00 | 0.00 | 0.00 | 66 | 1012.9 |
| 20260506013042 | 18 | 128 | 6.4 | 22.5 | 0.00 | 0.00 | 0.00 | 66 | 1012.9 |
| 20260506011537 | 18 | 169 | 8.0 | 25.7 | 0.00 | 0.00 | 0.00 | 67 | 1013.0 |
| 20260506010032 | 17 | 206 | 8.0 | 20.9 | 0.00 | 0.00 | 0.00 | 1 | 1013.0 |
| 20260506004536 | 17 | 207 | 6.4 | 17.7 | 0.00 | 0.00 | 0.00 | 1 | 1013.0 |
| 20260506003037 | 17 | 207 | 4.8 | 16.1 | 0.00 | 0.00 | 0.00 | 1 | 1013.2 |
| 20260506001519 | 18 | 207 | 6.4 | 16.1 | 0.00 | 0.00 | 0.00 | 1 | 1013.2 |
| 20260506000015 | 18 | 206 | 11.3 | 24.1 | 0.00 | 0.00 | 0.00 | 1 | 1013.4 |
| 20260505234515 | 18 | 206 | 9.7 | 24.1 | 0.00 | 0.00 | 0.00 | 1 | 1013.6 |
| 20260505233008 | 18 | 206 | 6.4 | 16.1 | 0.00 | 0.00 | 0.00 | 1 | 1013.7 |
| 20260505231504 | 17 | 207 | 6.4 | 16.1 | 0.00 | 0.00 | 0.00 | 1 | 1013.9 |
| 20260505230057 | 17 | 206 | 8.0 | 14.5 | 0.00 | 0.00 | 0.00 | 1 | 1014.2 |
| 20260505224554 | 16 | 206 | 8.0 | 16.1 | 0.00 | 0.00 | 0.00 | 1 | 1014.3 |
| 20260505223049 | 16 | 207 | 9.7 | 16.1 | 0.00 | 0.00 | 0.00 | 1 | 1014.4 |
| 20260505221544 | 16 | 206 | 8.0 | 17.7 | 0.00 | 0.00 | 0.00 | 1 | 1014.6 |
| 20260505220055 | 16 | 207 | 9.7 | 19.3 | 0.00 | 0.00 | 0.00 | 1 | 1014.6 |
| 20260505214539 | 15 | 207 | 8.0 | 16.1 | 0.00 | 0.00 | 0.00 | 1 | 1014.8 |
| 20260505213031 | 15 | 207 | 6.4 | 17.7 | 0.00 | 0.00 | 0.00 | 1 | 1014.9 |
| 20260505211526 | 14 | 207 | 6.4 | 16.1 | 0.00 | 0.00 | 0.00 | 1 | 1015.0 |
| 20260505210021 | 13 | 207 | 6.4 | 14.5 | 0.00 | 0.00 | 0.00 | 1 | 1015.1 |
| 20260505204516 | 13 | 206 | 8.0 | 17.7 | 0.00 | 0.00 | 0.00 | 1 | 1015.2 |
| 20260505203012 | 13 | 207 | 9.7 | 20.9 | 0.00 | 0.00 | 0.00 | 1 | 1015.2 |
| 20260505201509 | 13 | 207 | 8.0 | 16.1 | 0.00 | 0.00 | 0.00 | 1 | 1015.4 |
| 20260505200003 | 13 | 207 | 11.3 | 17.7 | 0.00 | 0.00 | 0.00 | 1 | 1015.3 |
| 20260505194559 | 13 | 206 | 9.7 | 16.1 | 0.00 | 0.00 | 0.00 | 1 | 1015.4 |
| 20260505193058 | 13 | 207 | 9.7 | 17.7 | 0.00 | 0.00 | 0.00 | 1 | 1015.3 |
| 20260505191557 | 13 | 206 | 11.3 | 22.5 | 0.00 | 0.00 | 0.00 | 1 | 1015.5 |
| 20260505190045 | 13 | 206 | 8.0 | 16.1 | 0.00 | 0.00 | 0.00 | 1 | 1015.5 |
| 20260505184543 | 13 | 206 | 9.7 | 17.7 | 0.00 | 0.00 | 0.00 | 1 | 1015.4 |
| 20260505183037 | 13 | 206 | 9.7 | 19.3 | 0.00 | 0.00 | 0.00 | 1 | 1015.4 |
| 20260505181533 | 13 | 206 | 9.7 | 19.3 | 0.00 | 0.00 | 0.00 | 1 | 1015.3 |
| 20260505180041 | 13 | 206 | 8.0 | 17.7 | 0.00 | 0.00 | 0.00 | 1 | 1015.2 |
| 20260505174532 | 12 | 207 | 11.3 | 20.9 | 0.00 | 0.00 | 0.00 | 1 | 1015.2 |
| 20260505173018 | 12 | 206 | 9.7 | 16.1 | 0.00 | 0.00 | 0.00 | 1 | 1015.1 |
| 20260505171516 | 12 | 206 | 8.0 | 19.3 | 0.00 | 0.00 | 0.00 | 1 | 1015.0 |
| 20260505170019 | 12 | 207 | 8.0 | 16.1 | 0.00 | 0.00 | 0.00 | 1 | 1015.0 |
| 20260505164507 | 12 | 207 | 9.7 | 17.7 | 0.00 | 0.00 | 0.00 | 1 | 1014.9 |